createdAt,value
2019-01-29T00:01:10.335Z,2.40
2019-01-29T00:03:39.160Z,2.50
2019-01-29T00:06:08.939Z,2.75
2019-01-29T00:08:39.105Z,2.50
2019-01-29T00:11:07.826Z,2.22
2019-01-29T00:13:36.652Z,2.20
2019-01-29T00:16:05.436Z,2.37
2019-01-29T00:18:34.131Z,1.92
2019-01-29T00:21:02.899Z,1.70
2019-01-29T00:23:31.598Z,2.08
2019-01-29T00:26:00.334Z,1.82
2019-01-29T00:28:29.077Z,1.80
2019-01-29T00:30:57.837Z,1.80
2019-01-29T00:33:26.682Z,1.45
2019-01-29T00:35:55.400Z,1.30
2019-01-29T00:38:24.128Z,1.57
2019-01-29T00:40:52.850Z,1.30
2019-01-29T00:43:21.656Z,1.67
2019-01-29T00:45:50.585Z,1.12
2019-01-29T00:48:20.330Z,1.30
2019-01-29T00:50:49.082Z,1.42
2019-01-29T00:53:17.790Z,2.02
2019-01-29T00:55:46.486Z,1.45
2019-01-29T00:58:15.224Z,1.20
2019-01-29T01:00:43.926Z,1.40
2019-01-29T01:03:12.647Z,1.20
2019-01-29T01:05:41.357Z,1.25
2019-01-29T01:08:10.095Z,1.20
2019-01-29T01:10:38.834Z,1.67
2019-01-29T01:13:07.586Z,1.65
2019-01-29T01:15:36.293Z,1.70
2019-01-29T01:18:04.990Z,1.67
2019-01-29T01:20:33.718Z,2.25
2019-01-29T01:23:02.422Z,1.40
2019-01-29T01:25:31.146Z,1.52
2019-01-29T01:28:01.203Z,1.15
2019-01-29T01:30:29.930Z,1.77
2019-01-29T01:32:58.630Z,2.30
2019-01-29T01:35:27.376Z,1.65
2019-01-29T01:37:56.270Z,1.85
2019-01-29T01:40:25.095Z,2.08
2019-01-29T01:42:56.596Z,1.67
2019-01-29T01:45:25.420Z,1.87
2019-01-29T01:47:54.146Z,1.45
2019-01-29T01:50:22.878Z,1.82
2019-01-29T01:52:58.919Z,1.65
2019-01-29T01:55:22.099Z,2.10
2019-01-29T01:57:50.826Z,1.70
2019-01-29T02:00:20.825Z,1.72
2019-01-29T02:02:49.530Z,1.57
2019-01-29T02:05:18.388Z,1.90
2019-01-29T02:07:47.087Z,2.33
2019-01-29T02:10:21.193Z,2.05
2019-01-29T02:12:49.927Z,2.27
2019-01-29T02:15:18.637Z,2.62
2019-01-29T02:17:47.324Z,2.75
2019-01-29T02:20:16.146Z,2.55
2019-01-29T02:22:44.870Z,2.83
2019-01-29T02:25:13.582Z,2.47
2019-01-29T02:27:42.302Z,3.52
2019-01-29T02:30:14.351Z,3.37
2019-01-29T02:32:43.146Z,3.67
2019-01-29T02:35:11.877Z,2.95
2019-01-29T02:37:40.584Z,3.02
2019-01-29T02:40:11.881Z,2.90
2019-01-29T02:42:40.606Z,2.87
2019-01-29T02:45:10.361Z,2.80
2019-01-29T02:47:39.066Z,3.00
2019-01-29T02:50:08.677Z,3.22
2019-01-29T02:52:37.386Z,4.05
2019-01-29T02:55:07.518Z,3.47
2019-01-29T02:57:58.310Z,2.72
2019-01-29T03:00:27.277Z,2.90
2019-01-29T03:02:56.077Z,3.72
2019-01-29T03:05:24.849Z,3.67
2019-01-29T03:07:53.557Z,2.37
2019-01-29T03:10:26.661Z,2.90
2019-01-29T03:12:55.407Z,3.05
2019-01-29T03:15:26.728Z,2.65
2019-01-29T03:17:55.414Z,3.30
2019-01-29T03:20:24.141Z,3.52
2019-01-29T03:22:52.937Z,2.87
2019-01-29T03:25:21.639Z,2.50
2019-01-29T03:27:50.358Z,2.87
2019-01-29T03:30:19.238Z,2.62
2019-01-29T03:32:48.038Z,2.65
2019-01-29T03:35:16.779Z,2.35
2019-01-29T03:37:45.482Z,2.90
2019-01-29T03:40:16.445Z,2.62
2019-01-29T03:42:45.162Z,2.80
2019-01-29T03:45:15.582Z,2.35
2019-01-29T03:47:44.378Z,2.92
2019-01-29T03:50:14.483Z,2.80
2019-01-29T03:52:43.312Z,3.58
2019-01-29T03:55:12.030Z,3.20
2019-01-29T03:57:40.747Z,3.75
2019-01-29T04:00:17.926Z,3.20
2019-01-29T04:02:46.714Z,3.15
2019-01-29T04:05:15.426Z,2.92
2019-01-29T04:07:44.221Z,3.33
2019-01-29T04:10:15.554Z,4.00
2019-01-29T04:12:44.303Z,3.90
2019-01-29T04:15:14.925Z,4.20
2019-01-29T04:17:43.625Z,3.37
2019-01-29T04:20:14.933Z,3.10
2019-01-29T04:22:45.765Z,2.52
2019-01-29T04:25:14.190Z,2.65
2019-01-29T04:27:42.917Z,2.50
2019-01-29T04:30:14.370Z,2.42
2019-01-29T04:32:43.098Z,2.58
2019-01-29T04:35:11.940Z,2.40
2019-01-29T04:37:40.653Z,2.30
2019-01-29T04:40:11.023Z,2.70
2019-01-29T04:42:39.770Z,2.02
2019-01-29T04:45:10.138Z,2.80
2019-01-29T04:47:38.915Z,2.83
2019-01-29T04:50:09.131Z,2.80
2019-01-29T04:52:37.863Z,2.72
2019-01-29T04:55:07.318Z,2.42
2019-01-29T04:57:36.084Z,2.65
2019-01-29T05:00:06.559Z,2.50
2019-01-29T05:02:35.409Z,2.35
2019-01-29T05:05:07.090Z,2.25
2019-01-29T05:07:35.860Z,3.17
2019-01-29T05:10:05.966Z,2.62
2019-01-29T05:12:34.669Z,2.52
2019-01-29T05:15:05.797Z,3.10
2019-01-29T05:17:34.491Z,3.08
2019-01-29T05:20:03.202Z,2.27
2019-01-29T05:22:31.901Z,2.85
2019-01-29T05:25:00.654Z,2.52
2019-01-29T05:27:29.365Z,2.90
2019-01-29T05:29:59.704Z,2.50
2019-01-29T05:32:28.434Z,2.98
2019-01-29T05:34:57.144Z,3.25
2019-01-29T05:37:27.146Z,2.98
2019-01-29T05:39:55.969Z,2.62
2019-01-29T05:42:24.665Z,2.70
2019-01-29T05:44:53.356Z,2.85
2019-01-29T05:47:22.088Z,2.80
2019-01-29T05:49:50.775Z,2.67
2019-01-29T05:52:19.466Z,2.67
2019-01-29T05:54:48.349Z,3.35
2019-01-29T05:57:17.075Z,2.92
2019-01-29T05:59:45.792Z,2.87
2019-01-29T06:02:14.501Z,3.00
2019-01-29T06:04:43.194Z,2.67
2019-01-29T06:07:11.959Z,2.80
2019-01-29T06:09:41.930Z,2.72
2019-01-29T06:12:10.626Z,2.95
2019-01-29T06:14:39.342Z,2.87
2019-01-29T06:17:08.107Z,2.33
2019-01-29T06:19:36.822Z,2.60
2019-01-29T06:22:05.514Z,2.08
2019-01-29T06:24:34.202Z,2.80
2019-01-29T06:27:02.918Z,2.90
2019-01-29T06:29:33.446Z,2.90
2019-01-29T06:32:17.991Z,3.10
2019-01-29T06:34:45.535Z,3.47
2019-01-29T06:37:22.455Z,2.58
2019-01-29T06:39:51.530Z,2.87
2019-01-29T06:42:20.246Z,3.30
2019-01-29T06:44:49.063Z,3.37
2019-01-29T06:47:17.779Z,3.02
2019-01-29T06:49:46.480Z,4.35
2019-01-29T06:52:15.199Z,3.42
2019-01-29T06:54:43.942Z,4.03
2019-01-29T06:57:12.645Z,4.20
2019-01-29T06:59:41.362Z,4.15
2019-01-29T07:02:10.091Z,4.67
2019-01-29T07:04:38.805Z,4.90
2019-01-29T07:07:07.544Z,5.33
2019-01-29T07:09:36.458Z,5.90
2019-01-29T07:12:05.186Z,5.20
2019-01-29T07:14:33.884Z,5.65
2019-01-29T07:17:24.543Z,6.08
2019-01-29T07:19:55.626Z,6.60
2019-01-29T07:22:25.500Z,7.05
2019-01-29T07:24:54.254Z,6.83
2019-01-29T07:27:23.004Z,7.05
2019-01-29T07:29:51.742Z,7.47
2019-01-29T07:32:20.486Z,6.90
2019-01-29T07:34:49.372Z,6.87
2019-01-29T07:37:22.130Z,6.80
2019-01-29T07:39:48.553Z,7.35
2019-01-29T07:42:17.685Z,7.22
2019-01-29T07:44:46.450Z,7.12
2019-01-29T07:47:15.220Z,7.92
2019-01-29T07:49:43.971Z,7.05
2019-01-29T07:52:12.881Z,7.37
2019-01-29T07:54:41.793Z,6.87
2019-01-29T07:57:10.500Z,6.35
2019-01-29T07:59:39.314Z,6.75
2019-01-29T08:02:08.110Z,6.70
2019-01-29T08:04:36.898Z,6.03
2019-01-29T08:07:05.614Z,5.50
2019-01-29T08:09:34.358Z,5.55
2019-01-29T08:12:03.094Z,5.10
2019-01-29T08:14:32.885Z,5.33
2019-01-29T08:17:01.585Z,4.92
2019-01-29T08:19:30.297Z,4.78
2019-01-29T08:21:59.080Z,4.62
2019-01-29T08:24:27.905Z,4.97
2019-01-29T08:26:56.665Z,4.87
2019-01-29T08:29:25.346Z,5.28
2019-01-29T08:31:54.032Z,4.92
2019-01-29T08:34:22.830Z,4.62
2019-01-29T08:36:51.524Z,4.87
2019-01-29T08:39:20.232Z,4.72
2019-01-29T08:41:48.952Z,4.83
2019-01-29T08:44:17.825Z,4.90
2019-01-29T08:46:46.537Z,4.60
2019-01-29T08:49:15.274Z,4.62
2019-01-29T08:51:43.974Z,4.97
2019-01-29T08:54:12.687Z,5.00
2019-01-29T08:56:41.458Z,5.40
2019-01-29T08:59:10.199Z,5.45
2019-01-29T09:01:38.946Z,5.03
2019-01-29T09:04:07.685Z,5.17
2019-01-29T09:06:36.383Z,5.42
2019-01-29T09:09:08.522Z,5.03
2019-01-29T09:11:37.240Z,5.37
2019-01-29T09:14:05.930Z,5.70
2019-01-29T09:16:34.643Z,5.47
2019-01-29T09:19:03.476Z,5.55
2019-01-29T09:21:32.182Z,5.03
2019-01-29T09:24:00.872Z,4.60
2019-01-29T09:26:29.660Z,5.03
2019-01-29T09:28:58.367Z,5.50
2019-01-29T09:31:27.092Z,4.65
2019-01-29T09:33:55.822Z,5.45
2019-01-29T09:36:24.529Z,5.70
2019-01-29T09:38:53.231Z,4.60
2019-01-29T09:41:21.988Z,5.33
2019-01-29T09:43:50.736Z,4.78
2019-01-29T09:46:19.470Z,5.33
2019-01-29T09:48:48.198Z,4.58
2019-01-29T09:51:16.995Z,13.08
2019-01-29T09:53:45.727Z,4.92
2019-01-29T09:56:14.461Z,4.35
2019-01-29T09:58:43.302Z,4.40
2019-01-29T10:01:12.081Z,5.05
2019-01-29T10:03:40.807Z,3.52
2019-01-29T10:06:09.589Z,4.67
2019-01-29T10:08:38.517Z,4.05
2019-01-29T10:11:07.246Z,4.22
2019-01-29T10:13:35.970Z,4.87
2019-01-29T10:16:04.713Z,4.55
2019-01-29T10:18:33.437Z,4.15
2019-01-29T10:21:02.135Z,3.85
2019-01-29T10:23:30.912Z,4.22
2019-01-29T10:25:59.621Z,4.50
2019-01-29T10:28:28.350Z,4.35
2019-01-29T10:30:57.093Z,4.62
2019-01-29T10:33:25.862Z,4.47
2019-01-29T10:35:54.559Z,4.70
2019-01-29T10:38:23.263Z,4.15
2019-01-29T10:40:52.005Z,4.50
2019-01-29T10:43:20.960Z,3.90
2019-01-29T10:45:49.672Z,4.78
2019-01-29T10:48:18.467Z,4.03
2019-01-29T10:50:47.204Z,4.47
2019-01-29T10:53:15.938Z,4.50
2019-01-29T10:55:47.330Z,4.65
2019-01-29T10:58:15.117Z,4.25
2019-01-29T11:00:43.882Z,4.55
2019-01-29T11:03:12.610Z,4.83
2019-01-29T11:05:41.328Z,4.37
2019-01-29T11:08:10.154Z,4.08
2019-01-29T11:10:38.901Z,4.42
2019-01-29T11:13:07.609Z,4.37
2019-01-29T11:15:38.462Z,4.17
2019-01-29T11:18:09.720Z,5.28
2019-01-29T11:20:38.414Z,4.95
2019-01-29T11:23:07.248Z,5.12
2019-01-29T11:25:36.045Z,4.80
2019-01-29T11:28:07.749Z,5.12
2019-01-29T11:30:36.450Z,4.50
2019-01-29T11:33:05.534Z,5.70
2019-01-29T11:35:34.246Z,4.70
2019-01-29T11:38:03.042Z,4.90
2019-01-29T11:40:31.780Z,5.47
2019-01-29T11:43:00.623Z,5.15
2019-01-29T11:45:40.426Z,4.72
2019-01-29T11:48:09.122Z,4.58
2019-01-29T11:50:37.837Z,4.85
2019-01-29T11:53:06.650Z,4.45
2019-01-29T11:55:36.317Z,5.08
2019-01-29T11:58:05.068Z,5.17
2019-01-29T12:01:08.156Z,4.65
2019-01-29T12:03:36.938Z,4.30
2019-01-29T12:06:05.701Z,4.60
2019-01-29T12:08:34.424Z,4.30
2019-01-29T12:11:03.155Z,4.15
2019-01-29T12:13:34.622Z,4.90
2019-01-29T12:16:03.421Z,4.53
2019-01-29T12:18:32.204Z,4.78
2019-01-29T12:21:00.902Z,4.70
2019-01-29T12:23:29.629Z,5.05
2019-01-29T12:25:58.321Z,4.58
2019-01-29T12:28:27.029Z,4.62
2019-01-29T12:30:58.675Z,5.05
2019-01-29T12:33:28.591Z,4.62
2019-01-29T12:35:57.362Z,5.05
2019-01-29T12:38:26.118Z,4.30
2019-01-29T12:40:54.834Z,4.97
2019-01-29T12:43:23.550Z,5.28
2019-01-29T12:45:52.409Z,4.90
2019-01-29T12:48:21.119Z,5.10
2019-01-29T12:51:12.055Z,5.05
2019-01-29T12:53:42.337Z,4.65
2019-01-29T12:56:11.044Z,4.45
2019-01-29T12:58:39.765Z,5.20
2019-01-29T13:01:08.514Z,4.55
2019-01-29T13:03:37.217Z,5.40
2019-01-29T13:06:05.933Z,4.75
2019-01-29T13:08:34.742Z,4.33
2019-01-29T13:11:03.580Z,4.72
2019-01-29T13:13:34.024Z,5.20
2019-01-29T13:16:02.738Z,4.60
2019-01-29T13:18:31.446Z,4.50
2019-01-29T13:21:00.195Z,4.62
2019-01-29T13:23:28.930Z,4.03
2019-01-29T13:25:57.618Z,4.47
2019-01-29T13:28:26.503Z,4.33
2019-01-29T13:30:55.214Z,4.83
2019-01-29T13:33:23.986Z,3.65
2019-01-29T13:35:52.714Z,4.28
2019-01-29T13:38:21.423Z,4.15
2019-01-29T13:40:50.154Z,4.47
2019-01-29T13:43:18.907Z,4.15
2019-01-29T13:45:47.616Z,4.58
2019-01-29T13:48:16.334Z,4.58
2019-01-29T13:50:47.699Z,4.33
2019-01-29T13:53:16.522Z,4.12
2019-01-29T13:55:45.236Z,3.95
2019-01-29T13:58:13.966Z,4.70
2019-01-29T14:00:42.735Z,4.62
2019-01-29T14:03:12.417Z,3.85
2019-01-29T14:05:41.322Z,4.80
2019-01-29T14:08:10.096Z,4.15
2019-01-29T14:10:38.810Z,3.60
2019-01-29T14:13:07.597Z,3.33
2019-01-29T14:15:55.975Z,3.75
2019-01-29T14:18:26.654Z,4.08
2019-01-29T14:20:55.486Z,4.03
2019-01-29T14:23:24.224Z,5.45
2019-01-29T14:25:52.942Z,4.33
2019-01-29T14:28:21.671Z,4.17
2019-01-29T14:30:50.414Z,4.35
2019-01-29T14:33:19.211Z,4.30
2019-01-29T14:35:48.035Z,4.50
2019-01-29T14:38:50.408Z,4.17
2019-01-29T14:41:22.782Z,4.37
2019-01-29T14:43:59.346Z,4.90
2019-01-29T14:46:28.118Z,4.55
2019-01-29T14:48:57.073Z,4.67
2019-01-29T14:51:25.884Z,5.03
2019-01-29T14:53:54.855Z,4.75
2019-01-29T14:56:23.723Z,5.15
2019-01-29T14:58:52.618Z,5.30
2019-01-29T15:01:21.482Z,4.90
2019-01-29T15:03:50.236Z,5.87
2019-01-29T15:06:18.967Z,5.78
2019-01-29T15:08:47.827Z,4.87
2019-01-29T15:11:16.615Z,5.35
2019-01-29T15:13:45.388Z,5.95
2019-01-29T15:16:42.762Z,4.72
2019-01-29T15:19:14.768Z,4.28
2019-01-29T15:21:43.618Z,4.53
2019-01-29T15:24:12.492Z,5.35
2019-01-29T15:26:41.405Z,4.78
2019-01-29T15:29:10.234Z,4.10
2019-01-29T15:31:39.152Z,4.12
2019-01-29T15:34:07.953Z,4.15
2019-01-29T15:36:36.701Z,4.12
2019-01-29T15:39:08.677Z,4.22
2019-01-29T15:41:37.846Z,3.75
2019-01-29T15:44:07.815Z,4.15
2019-01-29T15:46:36.729Z,4.60
2019-01-29T15:49:05.496Z,5.10
2019-01-29T15:51:34.290Z,4.28
2019-01-29T15:54:03.095Z,4.17
2019-01-29T15:56:32.094Z,4.15
2019-01-29T15:59:00.983Z,4.30
2019-01-29T16:01:29.758Z,4.80
2019-01-29T16:03:58.525Z,4.33
2019-01-29T16:06:27.359Z,4.53
2019-01-29T16:08:56.214Z,5.33
2019-01-29T16:11:24.997Z,4.62
2019-01-29T16:13:53.947Z,4.20
2019-01-29T16:16:22.702Z,4.95
2019-01-29T16:18:51.518Z,5.35
2019-01-29T16:21:20.471Z,5.17
2019-01-29T16:23:49.261Z,5.15
2019-01-29T16:26:19.629Z,4.97
2019-01-29T16:28:48.410Z,5.45
2019-01-29T16:31:17.094Z,4.70
2019-01-29T16:33:45.910Z,4.55
2019-01-29T16:36:17.846Z,5.05
2019-01-29T16:38:46.546Z,4.08
2019-01-29T16:41:15.278Z,4.75
2019-01-29T16:43:44.041Z,4.25
2019-01-29T16:46:12.975Z,4.55
2019-01-29T16:48:41.794Z,4.20
2019-01-29T16:51:10.536Z,4.53
2019-01-29T16:53:39.337Z,4.25
2019-01-29T16:56:08.042Z,4.67
2019-01-29T16:58:36.771Z,5.00
2019-01-29T17:01:05.844Z,5.17
2019-01-29T17:03:34.586Z,4.90
2019-01-29T17:06:03.333Z,5.28
2019-01-29T17:08:32.102Z,5.37
2019-01-29T17:11:00.798Z,5.87
2019-01-29T17:13:29.688Z,5.30
2019-01-29T17:15:58.423Z,5.60
2019-01-29T17:18:27.117Z,5.62
2019-01-29T17:20:55.846Z,6.17
2019-01-29T17:23:24.641Z,6.78
2019-01-29T17:25:53.498Z,5.85
2019-01-29T17:28:22.338Z,6.50
2019-01-29T17:30:51.125Z,5.50
2019-01-29T17:33:19.971Z,10.40
2019-01-29T17:35:48.777Z,6.75
2019-01-29T17:38:18.762Z,6.47
2019-01-29T17:40:47.635Z,5.78
2019-01-29T17:43:16.709Z,5.65
2019-01-29T17:45:47.168Z,6.33
2019-01-29T17:48:15.924Z,6.50
2019-01-29T17:50:44.984Z,5.83
2019-01-29T17:53:13.707Z,6.30
2019-01-29T17:55:43.021Z,6.78
2019-01-29T17:58:12.880Z,6.45
2019-01-29T18:00:44.113Z,6.28
2019-01-29T18:03:12.859Z,7.10
2019-01-29T18:05:41.620Z,7.65
2019-01-29T18:08:10.387Z,7.47
2019-01-29T18:10:39.102Z,7.50
2019-01-29T18:13:07.836Z,6.85
2019-01-29T18:15:36.602Z,7.83
2019-01-29T18:18:05.499Z,7.60
2019-01-29T18:20:34.387Z,7.08
2019-01-29T18:23:05.642Z,6.95
2019-01-29T18:25:33.575Z,6.85
2019-01-29T18:28:02.305Z,6.45
2019-01-29T18:30:32.282Z,6.62
2019-01-29T18:33:01.074Z,6.08
2019-01-29T18:35:29.806Z,6.67
2019-01-29T18:37:58.567Z,5.70
2019-01-29T18:40:42.780Z,6.75
2019-01-29T18:43:11.529Z,5.92
2019-01-29T18:45:40.337Z,6.53
2019-01-29T18:48:10.214Z,6.62
2019-01-29T18:50:39.241Z,6.85
2019-01-29T18:53:08.112Z,7.17
2019-01-29T18:55:36.957Z,7.03
2019-01-29T18:58:12.113Z,8.00
2019-01-29T19:00:36.419Z,7.20
2019-01-29T19:03:05.431Z,6.55
2019-01-29T19:05:34.206Z,6.17
2019-01-29T19:08:02.987Z,6.85
2019-01-29T19:10:31.727Z,6.22
2019-01-29T19:13:00.723Z,5.90
2019-01-29T19:15:29.593Z,5.72
2019-01-29T19:17:58.497Z,5.85
2019-01-29T19:20:27.522Z,5.95
2019-01-29T19:22:56.393Z,6.03
2019-01-29T19:25:25.166Z,6.00
2019-01-29T19:27:53.939Z,6.97
2019-01-29T19:30:29.387Z,6.33
2019-01-29T19:32:59.640Z,6.75
2019-01-29T19:35:28.529Z,6.83
2019-01-29T19:37:57.406Z,6.85
2019-01-29T19:40:26.170Z,7.50
2019-01-29T19:42:54.940Z,6.50
2019-01-29T19:45:26.013Z,8.95
2019-01-29T19:47:57.332Z,7.03
2019-01-29T19:50:28.239Z,7.33
2019-01-29T19:53:01.703Z,7.53
2019-01-29T19:55:31.093Z,7.10
2019-01-29T19:58:08.697Z,7.92
2019-01-29T20:00:38.156Z,7.40
2019-01-29T20:03:06.954Z,7.67
2019-01-29T20:05:41.723Z,8.23
2019-01-29T20:08:10.525Z,7.83
2019-01-29T20:10:42.110Z,7.25
2019-01-29T20:13:11.562Z,6.75
2019-01-29T20:15:41.421Z,7.80
2019-01-29T20:18:13.066Z,7.67
2019-01-29T20:20:42.866Z,8.68
2019-01-29T20:23:13.663Z,9.15
2019-01-29T20:25:43.965Z,8.13
2019-01-29T20:28:14.511Z,7.95
2019-01-29T20:30:44.851Z,7.40
2019-01-29T20:33:14.911Z,7.90
2019-01-29T20:35:43.718Z,8.55
2019-01-29T20:38:16.599Z,8.68
2019-01-29T20:40:45.439Z,8.33
2019-01-29T20:43:14.277Z,9.18
2019-01-29T20:45:43.119Z,8.35
2019-01-29T20:48:11.998Z,8.98
2019-01-29T20:50:40.741Z,9.00
2019-01-29T20:53:09.530Z,8.83
2019-01-29T20:55:38.560Z,8.08
2019-01-29T20:58:07.310Z,8.48
2019-01-29T21:00:38.034Z,8.50
2019-01-29T21:03:06.914Z,8.18
2019-01-29T21:05:35.782Z,8.30
2019-01-29T21:08:04.857Z,7.97
2019-01-29T21:10:33.661Z,8.83
2019-01-29T21:13:02.510Z,8.80
2019-01-29T21:15:38.152Z,8.85
2019-01-29T21:18:01.897Z,9.15
2019-01-29T21:20:31.402Z,8.70
2019-01-29T21:23:00.210Z,9.13
2019-01-29T21:25:36.831Z,9.60
2019-01-29T21:28:05.670Z,9.15
2019-01-29T21:30:39.030Z,8.83
2019-01-29T21:33:08.766Z,8.53
2019-01-29T21:35:37.750Z,9.05
2019-01-29T21:38:06.706Z,9.23
2019-01-29T21:40:35.954Z,9.48
2019-01-29T21:43:04.919Z,9.68
2019-01-29T21:45:33.926Z,8.68
2019-01-29T21:48:05.814Z,9.38
2019-01-29T21:50:34.830Z,8.88
2019-01-29T21:53:03.889Z,8.50
2019-01-29T21:55:32.775Z,9.73
2019-01-29T21:58:01.480Z,8.48
2019-01-29T22:00:35.393Z,8.83
2019-01-29T22:03:04.934Z,8.60
2019-01-29T22:05:33.798Z,8.35
2019-01-29T22:08:02.644Z,8.38
2019-01-29T22:10:31.568Z,9.38
2019-01-29T22:13:00.411Z,7.55
2019-01-29T22:15:29.322Z,8.38
2019-01-29T22:17:58.242Z,7.58
2019-01-29T22:20:27.030Z,9.55
2019-01-29T22:22:55.942Z,7.75
2019-01-29T22:25:25.038Z,8.08
2019-01-29T22:27:53.823Z,8.73
2019-01-29T22:30:25.477Z,8.80
2019-01-29T22:32:54.322Z,8.80
2019-01-29T22:35:23.094Z,8.90
2019-01-29T22:37:54.317Z,8.48
2019-01-29T22:40:24.178Z,8.33
2019-01-29T22:42:53.138Z,9.28
2019-01-29T22:45:21.987Z,9.10
2019-01-29T22:47:50.758Z,8.38
2019-01-29T22:50:40.355Z,8.55
2019-01-29T22:53:09.167Z,8.88
2019-01-29T22:55:38.019Z,8.93
2019-01-29T22:58:06.866Z,8.88
2019-01-29T23:01:13.027Z,8.40
2019-01-29T23:03:47.812Z,8.45
2019-01-29T23:06:38.644Z,8.43
2019-01-29T23:09:09.871Z,8.55
2019-01-29T23:11:38.896Z,8.55
2019-01-29T23:14:07.942Z,8.78
2019-01-29T23:16:36.854Z,8.05
2019-01-29T23:19:06.171Z,8.68
2019-01-29T23:21:34.970Z,9.78
2019-01-29T23:24:03.915Z,8.13
2019-01-29T23:26:32.753Z,7.58
2019-01-29T23:29:01.481Z,9.00
2019-01-29T23:31:30.254Z,8.08
2019-01-29T23:33:59.010Z,8.45
2019-01-29T23:36:27.891Z,8.83
2019-01-29T23:38:56.822Z,8.90
2019-01-29T23:41:27.473Z,8.30
2019-01-29T23:43:56.289Z,8.68
2019-01-29T23:46:25.154Z,8.38
2019-01-29T23:48:54.058Z,8.28
2019-01-29T23:51:22.882Z,8.20
2019-01-29T23:53:52.958Z,7.17
2019-01-29T23:56:21.730Z,8.45
2019-01-29T23:58:51.725Z,7.85
